createdAt,value
2018-07-25T00:00:40.501Z,1009.67
2018-07-25T00:01:40.373Z,1009.69
2018-07-25T00:02:40.316Z,1009.64
2018-07-25T00:03:40.218Z,1009.66
2018-07-25T00:04:40.263Z,1009.66
2018-07-25T00:05:40.082Z,1009.67
2018-07-25T00:06:40.037Z,1009.69
2018-07-25T00:07:39.942Z,1009.65
2018-07-25T00:08:39.942Z,1009.67
2018-07-25T00:09:39.816Z,1009.64
2018-07-25T00:12:21.627Z,1009.61
2018-07-25T00:13:21.638Z,1009.60
2018-07-25T00:14:21.503Z,1009.62
2018-07-25T00:15:21.443Z,1009.63
2018-07-25T00:16:21.339Z,1009.64
2018-07-25T00:17:21.358Z,1009.66
2018-07-25T00:18:21.177Z,1009.62
2018-07-25T00:19:21.203Z,1009.66
2018-07-25T00:20:21.051Z,1009.61
2018-07-25T00:21:21.085Z,1009.62
2018-07-25T00:22:20.874Z,1009.60
2018-07-25T00:23:20.892Z,1009.57
2018-07-25T00:24:20.728Z,1009.55
2018-07-25T00:25:21.763Z,1009.55
2018-07-25T00:26:20.584Z,1009.55
2018-07-25T00:27:20.695Z,1009.54
2018-07-25T00:28:20.432Z,1009.50
2018-07-25T00:29:20.441Z,1009.56
2018-07-25T00:30:20.301Z,1009.51
2018-07-25T00:31:20.270Z,1009.54
2018-07-25T00:32:20.122Z,1009.57
2018-07-25T00:35:02.150Z,1009.54
2018-07-25T00:36:03.194Z,1009.56
2018-07-25T00:37:02.000Z,1009.54
2018-07-25T00:42:28.692Z,1009.54
2018-07-25T00:43:28.595Z,1009.58
2018-07-25T00:47:08.286Z,1009.59
2018-07-25T00:48:08.066Z,1009.60
2018-07-25T00:49:08.062Z,1009.61
2018-07-25T00:50:07.925Z,1009.59
2018-07-25T00:51:07.911Z,1009.61
2018-07-25T00:52:07.762Z,1009.60
2018-07-25T00:53:07.776Z,1009.58
2018-07-25T00:54:07.612Z,1009.55
2018-07-25T01:03:23.986Z,1009.58
2018-07-25T01:04:23.948Z,1009.58
2018-07-25T01:05:23.822Z,1009.58
2018-07-25T01:06:24.805Z,1009.57
2018-07-25T01:07:23.648Z,1009.56
2018-07-25T01:08:23.654Z,1009.56
2018-07-25T01:09:23.498Z,1009.53
2018-07-25T01:10:23.562Z,1009.53
2018-07-25T01:11:23.393Z,1009.54
2018-07-25T01:12:23.367Z,1009.49
2018-07-25T01:13:23.202Z,1009.51
2018-07-25T01:14:23.177Z,1009.50
2018-07-25T01:15:23.050Z,1009.55
2018-07-25T01:16:23.194Z,1009.47
2018-07-25T01:17:22.918Z,1009.54
2018-07-25T01:18:22.897Z,1009.53
2018-07-25T01:19:22.749Z,1009.57
2018-07-25T01:22:04.680Z,1009.59
2018-07-25T01:23:04.747Z,1009.57
2018-07-25T01:24:04.507Z,1009.60
2018-07-25T01:27:49.716Z,1009.57
2018-07-25T01:28:48.575Z,1009.60
2018-07-25T01:31:30.655Z,1009.62
2018-07-25T01:32:30.655Z,1009.62
2018-07-25T01:33:30.557Z,1009.60
2018-07-25T01:36:12.654Z,1009.60
2018-07-25T01:37:12.677Z,1009.63
2018-07-25T01:38:12.510Z,1009.65
2018-07-25T01:39:12.519Z,1009.64
2018-07-25T01:40:12.375Z,1009.64
2018-07-25T01:41:12.390Z,1009.64
2018-07-25T01:42:12.204Z,1009.65
2018-07-25T01:43:12.204Z,1009.65
2018-07-25T01:44:12.072Z,1009.67
2018-07-25T01:46:54.176Z,1009.62
2018-07-25T01:47:54.211Z,1009.64
2018-07-25T01:48:54.028Z,1009.61
2018-07-25T01:49:54.018Z,1009.57
2018-07-25T01:50:53.849Z,1009.60
2018-07-25T01:51:53.847Z,1009.58
2018-07-25T01:52:53.705Z,1009.58
2018-07-25T01:53:53.778Z,1009.60
2018-07-25T01:54:53.567Z,1009.57
2018-07-25T01:57:35.646Z,1009.60
2018-07-25T01:58:35.662Z,1009.61
2018-07-25T01:59:35.565Z,1009.60
2018-07-25T02:00:35.559Z,1009.60
2018-07-25T02:01:35.362Z,1009.62
2018-07-25T02:02:35.371Z,1009.62
2018-07-25T02:03:35.234Z,1009.59
2018-07-25T02:04:35.146Z,1009.62
2018-07-25T02:05:35.076Z,1009.62
2018-07-25T02:06:35.106Z,1009.60
2018-07-25T02:07:34.906Z,1009.59
2018-07-25T02:08:34.836Z,1009.62
2018-07-25T02:09:34.751Z,1009.63
2018-07-25T02:10:34.746Z,1009.63
2018-07-25T02:11:34.600Z,1009.62
2018-07-25T02:12:34.617Z,1009.66
2018-07-25T02:13:34.459Z,1009.69
2018-07-25T02:14:34.433Z,1009.62
2018-07-25T02:15:34.329Z,1009.67
2018-07-25T02:16:34.343Z,1009.66
2018-07-25T02:17:34.143Z,1009.64
2018-07-25T02:18:34.138Z,1009.68
2018-07-25T02:19:34.048Z,1009.66
2018-07-25T02:20:34.020Z,1009.68
2018-07-25T02:21:33.845Z,1009.66
2018-07-25T02:22:33.882Z,1009.68
2018-07-25T02:23:33.696Z,1009.67
2018-07-25T02:24:33.674Z,1009.67
2018-07-25T02:25:33.558Z,1009.65
2018-07-25T02:26:33.484Z,1009.67
2018-07-25T02:27:33.376Z,1009.65
2018-07-25T02:30:15.673Z,1009.67
2018-07-25T02:31:15.762Z,1009.71
2018-07-25T02:32:15.520Z,1009.71
2018-07-25T02:33:15.507Z,1009.75
2018-07-25T02:34:15.378Z,1009.72
2018-07-25T02:35:15.414Z,1009.72
2018-07-25T02:36:15.229Z,1009.73
2018-07-25T02:37:16.287Z,1009.75
2018-07-25T02:38:15.071Z,1009.77
2018-07-25T02:39:15.059Z,1009.75
2018-07-25T02:40:14.916Z,1009.76
2018-07-25T02:41:14.949Z,1009.73
2018-07-25T02:42:14.793Z,1009.75
2018-07-25T02:43:14.782Z,1009.78
2018-07-25T02:44:14.616Z,1009.74
2018-07-25T02:45:14.558Z,1009.77
2018-07-25T02:46:14.453Z,1009.78
2018-07-25T02:47:14.509Z,1009.79
2018-07-25T02:48:14.315Z,1009.80
2018-07-25T02:49:14.284Z,1009.82
2018-07-25T02:50:14.142Z,1009.81
2018-07-25T02:51:14.186Z,1009.83
2018-07-25T02:52:14.015Z,1009.85
2018-07-25T02:53:14.040Z,1009.90
2018-07-25T02:54:13.842Z,1009.88
2018-07-25T02:55:13.806Z,1009.90
2018-07-25T02:56:13.694Z,1009.92
2018-07-25T02:57:13.716Z,1009.89
2018-07-25T02:58:13.563Z,1009.89
2018-07-25T02:59:13.463Z,1009.91
2018-07-25T03:00:13.385Z,1009.95
2018-07-25T03:02:55.749Z,1009.95
2018-07-25T03:03:55.647Z,1009.97
2018-07-25T03:04:55.529Z,1009.97
2018-07-25T03:05:55.554Z,1009.96
2018-07-25T03:06:55.378Z,1010.00
2018-07-25T03:09:37.883Z,1010.03
2018-07-25T03:10:37.669Z,1010.04
2018-07-25T03:11:37.534Z,1010.05
2018-07-25T03:15:20.856Z,1010.06
2018-07-25T03:16:20.613Z,1010.04
2018-07-25T03:19:02.753Z,1010.08
2018-07-25T03:20:06.708Z,1010.09
2018-07-25T03:21:02.554Z,1010.10
2018-07-25T03:22:04.565Z,1010.08
2018-07-25T03:23:02.420Z,1010.07
2018-07-25T03:37:59.360Z,1010.24
2018-07-25T03:38:59.346Z,1010.23
2018-07-25T03:39:59.222Z,1010.27
2018-07-25T03:40:59.160Z,1010.27
2018-07-25T03:41:59.025Z,1010.28
2018-07-25T03:42:58.980Z,1010.25
2018-07-25T03:43:58.875Z,1010.26
2018-07-25T03:44:58.918Z,1010.27
2018-07-25T03:45:58.743Z,1010.25
2018-07-25T03:46:58.685Z,1010.25
2018-07-25T03:47:58.570Z,1010.25
2018-07-25T03:48:58.601Z,1010.24
2018-07-25T03:49:58.445Z,1010.24
2018-07-25T03:50:58.406Z,1010.25
2018-07-25T03:51:58.270Z,1010.23
2018-07-25T03:52:58.214Z,1010.22
2018-07-25T03:53:58.106Z,1010.27
2018-07-25T03:54:59.087Z,1010.23
2018-07-25T03:55:57.959Z,1010.22
2018-07-25T03:56:57.932Z,1010.23
2018-07-25T03:57:57.802Z,1010.21
2018-07-25T03:58:57.852Z,1010.20
2018-07-25T03:59:57.690Z,1010.23
2018-07-25T04:00:57.691Z,1010.23
2018-07-25T04:01:57.498Z,1010.24
2018-07-25T04:02:57.468Z,1010.26
2018-07-25T04:03:57.362Z,1010.29
2018-07-25T04:04:57.372Z,1010.27
2018-07-25T04:05:57.206Z,1010.28
2018-07-25T04:06:57.177Z,1010.27
2018-07-25T04:07:57.040Z,1010.26
2018-07-25T04:08:57.099Z,1010.27
2018-07-25T04:09:56.887Z,1010.26
2018-07-25T04:10:56.941Z,1010.26
2018-07-25T04:11:56.723Z,1010.24
2018-07-25T04:12:56.712Z,1010.23
2018-07-25T04:13:56.582Z,1010.21
2018-07-25T04:14:56.634Z,1010.17
2018-07-25T04:15:56.453Z,1010.21
2018-07-25T04:16:56.439Z,1010.23
2018-07-25T04:17:56.260Z,1010.19
2018-07-25T04:18:56.241Z,1010.16
2018-07-25T04:19:56.120Z,1010.14
2018-07-25T04:20:56.189Z,1010.17
2018-07-25T04:21:55.962Z,1010.17
2018-07-25T04:22:55.957Z,1010.18
2018-07-25T04:23:55.832Z,1010.16
2018-07-25T04:24:55.772Z,1010.19
2018-07-25T04:25:55.677Z,1010.22
2018-07-25T04:26:55.704Z,1010.19
2018-07-25T04:27:55.501Z,1010.20
2018-07-25T04:28:55.492Z,1010.19
2018-07-25T04:29:55.343Z,1010.18
2018-07-25T04:30:55.325Z,1010.23
2018-07-25T04:31:55.202Z,1010.21
2018-07-25T04:32:55.211Z,1010.24
2018-07-25T04:33:55.065Z,1010.21
2018-07-25T04:34:55.009Z,1010.27
2018-07-25T04:35:54.910Z,1010.28
2018-07-25T04:36:54.935Z,1010.23
2018-07-25T04:37:54.735Z,1010.27
2018-07-25T04:38:54.728Z,1010.28
2018-07-25T04:39:54.584Z,1010.31
2018-07-25T04:40:54.536Z,1010.30
2018-07-25T04:41:54.438Z,1010.33
2018-07-25T04:42:54.454Z,1010.32
2018-07-25T04:43:54.272Z,1010.36
2018-07-25T04:44:54.256Z,1010.37
2018-07-25T04:45:54.121Z,1010.38
2018-07-25T04:46:54.100Z,1010.37
2018-07-25T04:49:36.233Z,1010.44
2018-07-25T04:50:36.189Z,1010.45
2018-07-25T04:51:36.204Z,1010.47
2018-07-25T04:52:36.002Z,1010.47
2018-07-25T04:53:35.918Z,1010.52
2018-07-25T04:54:35.853Z,1010.54
2018-07-25T04:55:35.760Z,1010.54
2018-07-25T04:56:35.706Z,1010.56
2018-07-25T04:57:35.642Z,1010.58
2018-07-25T04:58:35.534Z,1010.55
2018-07-25T04:59:35.463Z,1010.58
2018-07-25T05:00:35.383Z,1010.60
2018-07-25T05:01:35.315Z,1010.56
2018-07-25T05:02:35.256Z,1010.57
2018-07-25T05:05:17.228Z,1010.54
2018-07-25T05:06:38.125Z,1010.53
2018-07-25T05:12:00.263Z,1010.56
2018-07-25T05:33:39.036Z,1010.79
2018-07-25T05:34:38.913Z,1010.83
2018-07-25T05:35:38.852Z,1010.82
2018-07-25T05:36:38.777Z,1010.86
2018-07-25T05:37:38.696Z,1010.82
2018-07-25T05:38:38.633Z,1010.85
2018-07-25T05:39:38.538Z,1010.87
2018-07-25T05:40:38.496Z,1010.89
2018-07-25T05:41:38.401Z,1010.90
2018-07-25T05:42:38.300Z,1010.90
2018-07-25T05:43:38.275Z,1010.95
2018-07-25T05:44:38.156Z,1010.93
2018-07-25T05:47:41.232Z,1010.94
2018-07-25T05:48:41.204Z,1010.96
2018-07-25T05:49:41.094Z,1010.93
2018-07-25T05:50:41.001Z,1010.97
2018-07-25T05:51:19.934Z,1010.98
2018-07-25T05:52:19.867Z,1011.01
2018-07-25T05:53:19.775Z,1011.01
2018-07-25T05:54:19.736Z,1011.02
2018-07-25T06:15:41.644Z,1011.26
2018-07-25T06:16:41.566Z,1011.24
2018-07-25T06:17:41.506Z,1011.26
2018-07-25T06:18:41.387Z,1011.24
2018-07-25T06:19:41.372Z,1011.24
2018-07-25T06:20:41.313Z,1011.25
2018-07-25T06:21:41.206Z,1011.27
2018-07-25T06:22:41.083Z,1011.39
2018-07-25T06:23:41.012Z,1011.63
2018-07-25T06:24:40.932Z,1011.78
2018-07-25T06:25:40.875Z,1011.81
2018-07-25T06:26:41.823Z,1011.92
2018-07-25T06:27:40.700Z,1011.86
2018-07-25T06:28:40.635Z,1011.92
2018-07-25T06:29:40.570Z,1011.96
2018-07-25T06:30:40.503Z,1011.97
2018-07-25T06:31:40.416Z,1012.06
2018-07-25T06:32:40.342Z,1012.09
2018-07-25T06:33:40.261Z,1012.12
2018-07-25T06:34:40.263Z,1012.16
2018-07-25T06:35:40.176Z,1012.15
2018-07-25T06:36:40.058Z,1012.15
2018-07-25T06:37:39.968Z,1012.20
2018-07-25T06:38:39.895Z,1012.20
2018-07-25T06:39:39.815Z,1012.18
2018-07-25T06:40:39.756Z,1012.23
2018-07-25T06:41:39.723Z,1012.25
2018-07-25T06:42:39.615Z,1012.21
2018-07-25T06:43:39.619Z,1012.23
2018-07-25T06:46:21.781Z,1012.23
2018-07-25T06:47:21.693Z,1012.18
2018-07-25T06:48:21.620Z,1012.12
2018-07-25T06:49:21.547Z,1012.07
2018-07-25T06:50:21.485Z,1012.08
2018-07-25T06:51:21.473Z,1012.09
2018-07-25T06:52:21.338Z,1012.10
2018-07-25T06:53:21.295Z,1012.14
2018-07-25T06:54:21.198Z,1012.08
2018-07-25T06:55:21.147Z,1012.10
2018-07-25T06:56:21.093Z,1012.14
2018-07-25T06:57:21.049Z,1012.18
2018-07-25T06:58:20.925Z,1012.17
2018-07-25T06:59:20.857Z,1012.18
2018-07-25T07:00:20.922Z,1012.19
2018-07-25T07:01:20.817Z,1012.15
2018-07-25T07:02:20.998Z,1012.19
2018-07-25T07:03:20.758Z,1012.18
2018-07-25T07:04:20.739Z,1012.12
2018-07-25T07:05:20.452Z,1012.01
2018-07-25T07:06:20.376Z,1011.95
2018-07-25T07:07:21.510Z,1011.69
2018-07-25T07:08:20.226Z,1012.22
2018-07-25T07:11:02.274Z,1012.20
2018-07-25T07:12:02.327Z,1012.23
2018-07-25T07:13:02.153Z,1012.20
2018-07-25T07:14:02.075Z,1012.20
2018-07-25T07:15:02.011Z,1012.21
2018-07-25T07:16:01.926Z,1012.19
2018-07-25T07:17:01.869Z,1012.16
2018-07-25T07:18:01.812Z,1012.14
2018-07-25T07:19:01.723Z,1012.13
2018-07-25T07:20:01.815Z,1012.13
2018-07-25T07:21:01.586Z,1012.12
2018-07-25T07:22:01.552Z,1012.10
2018-07-25T07:23:01.501Z,1012.11
2018-07-25T07:24:01.474Z,1012.00
2018-07-25T07:25:01.309Z,1012.01
2018-07-25T07:26:01.283Z,1011.99
2018-07-25T07:27:01.177Z,1011.98
2018-07-25T07:28:01.251Z,1012.09
2018-07-25T07:29:01.072Z,1012.11
2018-07-25T07:31:43.362Z,1012.04
2018-07-25T07:32:43.293Z,1012.07
2018-07-25T07:33:43.170Z,1012.05
2018-07-25T07:34:44.184Z,1012.11
2018-07-25T07:35:43.011Z,1012.07
2018-07-25T07:36:43.129Z,1012.06
2018-07-25T07:37:42.961Z,1012.08
2018-07-25T07:38:42.981Z,1012.09
2018-07-25T07:39:42.744Z,1012.08
2018-07-25T07:40:42.777Z,1012.04
2018-07-25T07:41:42.627Z,1012.01
2018-07-25T07:42:42.560Z,1012.06
2018-07-25T07:43:42.581Z,1012.05
2018-07-25T07:44:42.428Z,1012.07
2018-07-25T07:45:42.363Z,1012.10
2018-07-25T07:46:42.285Z,1012.07
2018-07-25T07:47:42.215Z,1011.84
2018-07-25T07:48:42.163Z,1012.06
2018-07-25T07:49:42.080Z,1012.10
2018-07-25T07:50:42.066Z,1012.12
2018-07-25T07:51:41.949Z,1012.18
2018-07-25T07:52:41.899Z,1012.21
2018-07-25T07:53:41.841Z,1012.20
2018-07-25T07:54:41.759Z,1012.20
2018-07-25T07:55:41.689Z,1012.17
2018-07-25T07:56:41.648Z,1012.24
2018-07-25T07:57:41.559Z,1012.25
2018-07-25T07:58:41.527Z,1012.26
2018-07-25T07:59:41.428Z,1012.27
2018-07-25T08:00:41.376Z,1011.86
2018-07-25T08:01:41.300Z,1012.37
2018-07-25T08:02:41.237Z,1012.38
2018-07-25T08:03:41.189Z,1012.33
2018-07-25T08:04:41.111Z,1012.37
2018-07-25T08:05:41.013Z,1012.36
2018-07-25T08:06:40.959Z,1012.35
2018-07-25T08:07:40.917Z,1012.35
2018-07-25T08:08:41.879Z,1012.34
2018-07-25T08:09:40.779Z,1012.33
2018-07-25T08:12:23.232Z,1012.41
2018-07-25T08:13:22.755Z,1012.41
2018-07-25T08:14:22.692Z,1012.39
2018-07-25T08:15:22.603Z,1012.38
2018-07-25T08:16:22.548Z,1012.35
2018-07-25T08:17:22.486Z,1012.29
2018-07-25T08:18:22.428Z,1012.26
2018-07-25T08:19:22.367Z,1012.21
2018-07-25T08:20:22.321Z,1012.19
2018-07-25T08:21:22.236Z,1012.17
2018-07-25T08:22:22.207Z,1012.16
2018-07-25T08:23:22.106Z,1012.11
2018-07-25T08:24:22.043Z,1012.06
2018-07-25T08:25:21.975Z,1012.08
2018-07-25T08:26:21.907Z,1012.11
2018-07-25T08:27:21.895Z,1012.11
2018-07-25T08:28:21.815Z,1012.15
2018-07-25T08:29:21.740Z,1012.13
2018-07-25T08:30:21.671Z,1012.12
2018-07-25T08:31:21.579Z,1012.10
2018-07-25T08:32:21.521Z,1012.10
2018-07-25T08:33:21.462Z,1012.02
2018-07-25T08:34:21.472Z,1012.09
2018-07-25T08:35:21.330Z,1012.07
2018-07-25T08:36:21.258Z,1012.10
2018-07-25T08:37:21.198Z,1012.11
2018-07-25T08:38:21.123Z,1012.09
2018-07-25T08:39:21.103Z,1012.06
2018-07-25T08:40:21.026Z,1012.05
2018-07-25T08:41:20.958Z,1012.03
2018-07-25T08:42:20.866Z,1012.04
2018-07-25T08:43:20.822Z,1012.06
2018-07-25T08:44:20.748Z,1012.06
2018-07-25T08:45:20.704Z,1012.07
2018-07-25T08:46:20.609Z,1012.10
2018-07-25T08:47:20.577Z,1012.08
2018-07-25T08:48:20.595Z,1012.13
2018-07-25T08:49:20.435Z,1012.10
2018-07-25T08:50:20.390Z,1012.13
2018-07-25T08:51:20.334Z,1012.17
2018-07-25T08:52:20.243Z,1012.15
2018-07-25T08:55:02.352Z,1012.14
2018-07-25T08:56:02.292Z,1012.13
2018-07-25T08:57:02.192Z,1012.12
2018-07-25T08:58:02.155Z,1012.15
2018-07-25T08:59:02.063Z,1012.12
2018-07-25T09:00:02.038Z,1012.19
2018-07-25T09:01:01.946Z,1012.16
2018-07-25T09:02:01.889Z,1012.18
2018-07-25T09:03:01.818Z,1012.14
2018-07-25T09:05:43.842Z,1012.20
2018-07-25T09:08:25.820Z,1012.20
2018-07-25T09:09:25.764Z,1012.24
2018-07-25T09:10:25.728Z,1012.24
2018-07-25T09:11:25.669Z,1012.30
2018-07-25T09:12:25.565Z,1012.30
2018-07-25T09:16:07.366Z,1012.31
2018-07-25T09:17:07.292Z,1012.31
2018-07-25T09:18:07.208Z,1012.32
2018-07-25T09:19:07.230Z,1012.33
2018-07-25T09:21:49.356Z,1012.27
2018-07-25T09:23:49.201Z,1012.27
2018-07-25T09:24:49.164Z,1012.29
2018-07-25T09:25:49.108Z,1012.31
2018-07-25T09:26:49.114Z,1012.31
2018-07-25T09:27:48.949Z,1012.34
2018-07-25T09:30:31.420Z,1012.35
2018-07-25T09:31:31.311Z,1012.31
2018-07-25T09:32:31.209Z,1012.34
2018-07-25T09:33:31.174Z,1012.35
2018-07-25T09:34:31.094Z,1012.36
2018-07-25T09:35:31.038Z,1012.38
2018-07-25T09:36:30.998Z,1012.37
2018-07-25T09:37:30.908Z,1012.38
2018-07-25T09:38:30.852Z,1012.40
2018-07-25T09:39:30.844Z,1012.36
2018-07-25T09:40:30.722Z,1012.35
2018-07-25T09:41:31.697Z,1012.34
2018-07-25T09:42:30.616Z,1012.39
2018-07-25T09:43:30.571Z,1012.40
2018-07-25T09:44:30.526Z,1012.23
2018-07-25T09:45:30.450Z,1012.36
2018-07-25T09:46:30.400Z,1012.23
2018-07-25T09:47:32.339Z,1012.29
2018-07-25T09:48:30.245Z,1012.18
2018-07-25T09:49:30.189Z,1012.37
2018-07-25T09:50:30.127Z,1012.35
2018-07-25T09:51:30.069Z,1012.32
2018-07-25T09:52:30.165Z,1012.31
2018-07-25T09:53:29.945Z,1012.33
2018-07-25T09:54:30.126Z,1012.32
2018-07-25T09:57:11.883Z,1012.32
2018-07-25T09:58:11.792Z,1012.29
2018-07-25T09:59:11.729Z,1012.29
2018-07-25T10:00:11.681Z,1012.28
2018-07-25T10:01:11.771Z,1012.26
2018-07-25T10:02:11.558Z,1012.25
2018-07-25T10:03:11.554Z,1012.24
2018-07-25T10:04:11.460Z,1012.24
2018-07-25T10:05:11.361Z,1012.25
2018-07-25T10:06:11.711Z,1012.25
2018-07-25T10:07:11.340Z,1012.23
2018-07-25T10:08:12.218Z,1012.25
2018-07-25T10:09:11.131Z,1012.24
2018-07-25T10:10:11.109Z,1012.20
2018-07-25T10:11:11.030Z,1012.26
2018-07-25T10:12:10.967Z,1012.20
2018-07-25T10:13:10.896Z,1012.28
2018-07-25T10:14:10.845Z,1012.26
2018-07-25T10:15:10.790Z,1012.25
2018-07-25T10:16:10.730Z,1012.26
2018-07-25T10:17:10.729Z,1012.29
2018-07-25T10:18:10.648Z,1012.27
2018-07-25T10:19:10.615Z,1012.21
2018-07-25T10:20:10.479Z,1012.20
2018-07-25T10:21:10.407Z,1012.26
2018-07-25T10:22:10.361Z,1012.24
2018-07-25T10:23:10.277Z,1012.28
2018-07-25T10:24:10.272Z,1012.26
2018-07-25T10:25:10.179Z,1012.21
2018-07-25T10:26:10.294Z,1012.14
2018-07-25T10:27:10.214Z,1012.18
2018-07-25T10:28:10.737Z,1012.18
2018-07-25T10:29:10.697Z,1012.18
2018-07-25T10:30:09.876Z,1012.18
2018-07-25T10:31:09.815Z,1012.17
2018-07-25T10:32:09.798Z,1012.18
2018-07-25T10:33:09.728Z,1012.16
2018-07-25T10:34:09.661Z,1012.13
2018-07-25T10:35:09.732Z,1012.10
2018-07-25T10:36:09.538Z,1012.14
2018-07-25T10:37:09.452Z,1012.16
2018-07-25T10:38:09.405Z,1012.14
2018-07-25T10:39:09.400Z,1012.12
2018-07-25T10:40:09.303Z,1012.16
2018-07-25T10:41:09.204Z,1012.07
2018-07-25T10:42:09.162Z,1012.09
2018-07-25T10:43:09.099Z,1012.04
2018-07-25T10:45:51.395Z,1012.07
2018-07-25T10:46:51.313Z,1012.05
2018-07-25T10:47:51.233Z,1011.90
2018-07-25T10:48:51.229Z,1012.01
2018-07-25T10:49:51.128Z,1012.02
2018-07-25T10:50:52.368Z,1012.04
2018-07-25T10:51:50.989Z,1011.96
2018-07-25T10:52:50.939Z,1012.00
2018-07-25T10:53:50.878Z,1012.00
2018-07-25T10:54:50.832Z,1012.03
2018-07-25T10:55:50.771Z,1011.98
2018-07-25T10:56:50.734Z,1011.99
2018-07-25T10:57:50.650Z,1011.98
2018-07-25T11:00:32.858Z,1011.94
2018-07-25T11:01:32.819Z,1011.99
2018-07-25T11:02:32.754Z,1011.46
2018-07-25T11:03:32.695Z,1011.94
2018-07-25T11:04:32.627Z,1011.82
2018-07-25T11:07:14.895Z,1011.67
2018-07-25T11:08:14.816Z,1011.82
2018-07-25T11:09:14.742Z,1011.67
2018-07-25T11:10:14.677Z,1011.85
2018-07-25T11:11:14.606Z,1011.66
2018-07-25T11:12:14.588Z,1011.55
2018-07-25T11:13:14.652Z,1011.86
2018-07-25T11:14:14.461Z,1011.52
2018-07-25T11:15:14.381Z,1011.58
2018-07-25T11:16:14.337Z,1011.76
2018-07-25T11:17:14.287Z,1011.89
2018-07-25T11:18:14.214Z,1011.89
2018-07-25T11:19:14.127Z,1011.82
2018-07-25T11:20:14.074Z,1011.78
2018-07-25T11:21:14.025Z,1011.76
2018-07-25T11:22:14.102Z,1011.77
2018-07-25T11:23:14.204Z,1011.71
2018-07-25T11:24:13.839Z,1011.74
2018-07-25T11:25:13.780Z,1011.79
2018-07-25T11:26:13.716Z,1011.76
2018-07-25T11:27:13.680Z,1011.77
2018-07-25T11:28:13.588Z,1011.75
2018-07-25T11:29:13.520Z,1011.73
2018-07-25T11:30:13.461Z,1011.74
2018-07-25T11:31:13.387Z,1011.74
2018-07-25T11:32:13.350Z,1011.74
2018-07-25T11:33:13.312Z,1011.69
2018-07-25T11:34:13.240Z,1011.68
2018-07-25T11:35:13.150Z,1011.67
2018-07-25T11:37:55.388Z,1011.67
2018-07-25T11:38:55.307Z,1011.69
2018-07-25T11:39:55.242Z,1011.62
2018-07-25T11:40:55.182Z,1011.61
2018-07-25T11:41:55.130Z,1011.60
2018-07-25T11:42:55.109Z,1011.57
2018-07-25T11:43:55.069Z,1011.53
2018-07-25T11:44:54.958Z,1011.51
2018-07-25T11:45:54.883Z,1011.56
2018-07-25T11:46:54.842Z,1011.56
2018-07-25T11:47:54.798Z,1011.54
2018-07-25T11:48:54.744Z,1011.55
2018-07-25T11:49:54.692Z,1011.56
2018-07-25T11:50:54.606Z,1011.40
2018-07-25T11:51:54.539Z,1011.14
2018-07-25T11:52:54.535Z,1011.12
2018-07-25T11:53:54.445Z,1011.04
2018-07-25T11:54:54.346Z,1011.05
2018-07-25T11:55:54.289Z,1011.05
2018-07-25T11:56:54.242Z,1011.08
2018-07-25T11:57:54.187Z,1011.01
2018-07-25T11:58:54.135Z,1011.01
2018-07-25T11:59:54.084Z,1010.98
2018-07-25T12:00:54.020Z,1011.00
2018-07-25T12:01:54.434Z,1010.99
2018-07-25T12:02:53.894Z,1010.97
2018-07-25T12:03:53.816Z,1011.00
2018-07-25T12:04:53.839Z,1011.04
2018-07-25T12:05:53.706Z,1010.98
2018-07-25T12:06:53.648Z,1010.98
2018-07-25T12:07:53.578Z,1010.98
2018-07-25T12:08:53.548Z,1010.95
2018-07-25T12:09:53.465Z,1010.90
2018-07-25T12:10:53.401Z,1010.96
2018-07-25T12:11:53.336Z,1010.89
2018-07-25T12:14:35.417Z,1010.89
2018-07-25T12:15:36.399Z,1010.93
2018-07-25T12:17:59.869Z,1010.90
2018-07-25T12:18:59.841Z,1010.81
2018-07-25T12:19:59.762Z,1010.79
2018-07-25T12:20:59.702Z,1010.83
2018-07-25T12:21:59.753Z,1010.80
2018-07-25T12:22:59.569Z,1010.82
2018-07-25T12:23:59.499Z,1010.78
2018-07-25T12:25:00.448Z,1010.70
2018-07-25T12:25:59.351Z,1010.66
2018-07-25T12:26:59.323Z,1010.66
2018-07-25T12:27:59.228Z,1010.63
2018-07-25T12:28:59.236Z,1010.66
2018-07-25T12:29:59.110Z,1010.65
2018-07-25T12:30:59.033Z,1010.64
2018-07-25T12:31:58.985Z,1010.69
2018-07-25T12:42:57.368Z,1010.57
2018-07-25T12:43:57.173Z,1010.56
2018-07-25T12:44:57.079Z,1010.62
2018-07-25T12:45:57.039Z,1010.57
2018-07-25T12:46:56.943Z,1010.57
2018-07-25T12:47:56.860Z,1010.58
2018-07-25T12:48:56.811Z,1010.58
2018-07-25T12:49:56.745Z,1010.57
2018-07-25T12:50:56.738Z,1010.55
2018-07-25T12:51:56.594Z,1010.53
2018-07-25T12:52:56.538Z,1010.52
2018-07-25T12:53:56.585Z,1010.50
2018-07-25T12:54:56.429Z,1010.54
2018-07-25T12:55:56.363Z,1010.53
2018-07-25T12:56:56.305Z,1010.51
2018-07-25T12:57:56.256Z,1010.51
2018-07-25T12:58:56.157Z,1010.50
2018-07-25T12:59:56.077Z,1010.47
2018-07-25T13:00:56.057Z,1010.47
2018-07-25T13:01:55.957Z,1010.47
2018-07-25T13:02:55.972Z,1010.47
2018-07-25T13:03:55.801Z,1010.46
2018-07-25T13:04:55.723Z,1010.41
2018-07-25T13:05:55.649Z,1010.40
2018-07-25T13:06:55.609Z,1010.40
2018-07-25T13:07:55.531Z,1010.46
2018-07-25T13:10:37.417Z,1010.42
2018-07-25T13:11:38.344Z,1010.41
2018-07-25T13:12:37.272Z,1010.47
2018-07-25T13:13:37.217Z,1010.50
2018-07-25T13:14:37.122Z,1010.39
2018-07-25T13:15:37.064Z,1010.41
2018-07-25T13:16:36.990Z,1010.40
2018-07-25T13:19:18.913Z,1010.43
2018-07-25T13:20:18.841Z,1010.41
2018-07-25T13:21:18.759Z,1010.44
2018-07-25T13:22:18.712Z,1010.49
2018-07-25T13:23:18.646Z,1010.49
2018-07-25T13:24:18.564Z,1010.50
2018-07-25T13:25:18.541Z,1010.50
2018-07-25T13:26:18.423Z,1010.47
2018-07-25T13:27:18.376Z,1010.44
2018-07-25T13:28:18.332Z,1010.49
2018-07-25T13:29:18.269Z,1010.45
2018-07-25T13:31:42.898Z,1010.39
2018-07-25T13:32:42.927Z,1010.36
2018-07-25T13:33:42.810Z,1010.36
2018-07-25T13:34:42.717Z,1010.34
2018-07-25T13:35:43.052Z,1010.32
2018-07-25T13:36:42.584Z,1010.37
2018-07-25T13:37:42.504Z,1010.38
2018-07-25T13:38:42.478Z,1010.37
2018-07-25T13:39:42.374Z,1010.37
2018-07-25T13:40:42.326Z,1010.35
2018-07-25T13:41:42.244Z,1010.31
2018-07-25T13:44:24.426Z,1010.38
2018-07-25T13:46:48.905Z,1010.33
2018-07-25T13:47:48.859Z,1010.29
2018-07-25T13:48:48.772Z,1010.26
2018-07-25T13:49:48.729Z,1010.31
2018-07-25T13:50:48.638Z,1010.29
2018-07-25T13:53:30.994Z,1010.26
2018-07-25T13:54:30.875Z,1010.27
2018-07-25T13:55:30.797Z,1010.26
2018-07-25T13:56:30.717Z,1010.26
2018-07-25T13:57:30.683Z,1010.29
2018-07-25T13:58:30.587Z,1010.29
2018-07-25T13:59:30.532Z,1010.29
2018-07-25T14:00:30.485Z,1010.22
2018-07-25T14:01:30.390Z,1010.27
2018-07-25T14:02:30.315Z,1010.26
2018-07-25T14:03:30.237Z,1010.28
2018-07-25T14:04:30.195Z,1010.29
2018-07-25T14:05:30.147Z,1010.26
2018-07-25T14:06:30.058Z,1010.30
2018-07-25T14:07:30.001Z,1010.18
2018-07-25T14:08:29.932Z,1010.18
2018-07-25T14:09:29.860Z,1010.12
2018-07-25T14:10:29.785Z,1010.13
2018-07-25T14:11:29.812Z,1010.26
2018-07-25T14:12:29.667Z,1010.20
2018-07-25T14:13:29.579Z,1010.17
2018-07-25T14:14:29.516Z,1010.16
2018-07-25T14:15:29.472Z,1010.19
2018-07-25T14:16:29.391Z,1010.16
2018-07-25T14:17:29.305Z,1010.20
2018-07-25T14:18:29.288Z,1010.25
2018-07-25T14:19:29.240Z,1010.30
2018-07-25T14:20:29.247Z,1010.37
2018-07-25T14:21:29.043Z,1010.47
2018-07-25T14:22:29.006Z,1010.59
2018-07-25T14:23:28.924Z,1010.61
2018-07-25T14:24:29.041Z,1010.65
2018-07-25T14:25:28.769Z,1010.75
2018-07-25T14:26:28.778Z,1010.72
2018-07-25T14:27:28.626Z,1010.75
2018-07-25T14:28:28.736Z,1010.72
2018-07-25T14:29:28.547Z,1010.69
2018-07-25T14:30:28.644Z,1010.67
2018-07-25T14:31:28.406Z,1010.58
2018-07-25T14:32:28.362Z,1010.60
2018-07-25T14:33:28.220Z,1010.51
2018-07-25T14:34:28.280Z,1010.51
2018-07-25T14:35:28.096Z,1010.49
2018-07-25T14:36:28.077Z,1010.50
2018-07-25T14:37:27.977Z,1010.44
2018-07-25T14:38:27.990Z,1010.42
2018-07-25T14:39:27.807Z,1010.42